Terminal Aerodrome Forecast
Issued by NWS

Home | Current Version | Previous Version | Text Only | Print | Product List | Glossary On
Versions: 1 2 3 4 5 6 7 8 9 10 11 12 13
000
FTUS43 KDVN 211120
TAFBRL
TAF
KBRL 211120Z 2112/2212 33009KT P6SM SCT250
     FM211500 03009KT P6SM SCT040
     FM220100 06007KT P6SM SCT250=

USA.gov is the U.S. government's official web portal to all federal, state and local government web resources and services.